createdAt,value
2023-01-05T00:02:07.019Z,92.00
2023-01-05T00:04:37.153Z,92.10
2023-01-05T00:07:07.180Z,92.20
2023-01-05T00:09:37.083Z,92.10
2023-01-05T00:12:21.020Z,92.10
2023-01-05T00:15:10.330Z,92.20
2023-01-05T00:17:50.514Z,92.20
2023-01-05T00:20:40.617Z,92.20
2023-01-05T00:23:11.829Z,92.20
2023-01-05T00:25:43.357Z,92.20
2023-01-05T00:28:13.337Z,92.20
2023-01-05T00:30:48.894Z,92.20
2023-01-05T00:33:20.332Z,92.30
2023-01-05T00:35:50.261Z,92.30
2023-01-05T00:38:20.144Z,92.30
2023-01-05T00:40:51.577Z,92.30
2023-01-05T00:43:21.436Z,92.30
2023-01-05T00:45:51.346Z,92.30
2023-01-05T00:48:21.360Z,92.40
2023-01-05T00:50:52.903Z,92.30
2023-01-05T00:53:22.851Z,92.40
2023-01-05T00:56:00.850Z,92.40
2023-01-05T00:58:30.872Z,92.40
2023-01-05T01:01:00.871Z,92.30
2023-01-05T01:03:31.458Z,92.20
2023-01-05T01:06:01.887Z,92.20
2023-01-05T01:08:31.909Z,92.30
2023-01-05T01:11:07.884Z,92.30
2023-01-05T01:13:37.886Z,92.50
2023-01-05T01:16:10.841Z,92.50
2023-01-05T01:18:41.728Z,92.50
2023-01-05T01:21:11.242Z,92.50
2023-01-05T01:23:41.349Z,92.50
2023-01-05T01:26:13.727Z,92.50
2023-01-05T01:28:44.007Z,92.40
2023-01-05T01:31:14.061Z,92.40
2023-01-05T01:33:44.233Z,92.40
2023-01-05T01:36:14.312Z,92.30
2023-01-05T01:38:44.256Z,92.40
2023-01-05T01:41:15.623Z,92.50
2023-01-05T01:43:51.721Z,92.30
2023-01-05T01:46:23.365Z,92.30
2023-01-05T01:49:01.599Z,92.30
2023-01-05T01:51:43.312Z,92.20
2023-01-05T01:54:18.113Z,92.30
2023-01-05T01:56:57.502Z,92.30
2023-01-05T01:59:29.310Z,92.40
2023-01-05T02:02:02.875Z,92.40
2023-01-05T02:04:35.524Z,92.40
2023-01-05T02:07:06.628Z,92.30
2023-01-05T02:09:37.922Z,92.30
2023-01-05T02:12:29.556Z,92.30
2023-01-05T02:15:28.527Z,92.20
2023-01-05T02:18:18.382Z,92.10
2023-01-05T02:21:02.481Z,91.90
2023-01-05T02:24:05.599Z,91.70
2023-01-05T02:27:03.826Z,91.50
2023-01-05T02:30:02.340Z,91.20
2023-01-05T02:32:43.005Z,91.10
2023-01-05T02:35:45.357Z,90.90
2023-01-05T02:38:33.272Z,90.90
2023-01-05T02:41:27.648Z,90.80
2023-01-05T02:43:59.305Z,90.90
2023-01-05T02:46:29.301Z,90.90
2023-01-05T02:49:03.409Z,90.60
2023-01-05T02:51:39.721Z,90.20
